In Rescue
 
Open Full Screen Window  High Contrast Mode
Wind Gusting 14 knots
08
September 23, 2021 2:13 PM EDT
Present Weather: Light Rain
Weather Information
Wind Direction
  240 °
Wind Speed
  08 kt (9 mph)
Wind Gust
  14 kt (16 mph)
Altimeter
29.71 in
Visibility
4 SM
Temperature
11° C
52° F
Dewpoint
09° C
48° F
Humidity
88%
1hr Rain Fall
00.01 in.
24hr Rain Fall
01.14 in.
Sky Condition
Overcast @ 1,000 ft
MVFR

METAR KONZ 231813Z AUTO 24008G14KT 4SM -RA OVC010 11/09 A2971 RMK AO2 T01050087 P0001

FAA Disclaimer: The data displayed is for advisory purposes only and is not to be used for flight planning or operations.